sensor_id;sensor_type;location;lat;lon;timestamp;pressure;altitude;pressure_sealevel;temperature;humidity
41234;BME280;26968;42.686;23.352;2023-07-20T00:01:25;94943.78;;;26.12;44.93
41234;BME280;26968;42.686;23.352;2023-07-20T00:03:51;94905.31;;;26.07;44.35
41234;BME280;26968;42.686;23.352;2023-07-20T00:06:25;94942.13;;;26.52;44.09
41234;BME280;26968;42.686;23.352;2023-07-20T00:08:53;94933.28;;;26.69;43.83
41234;BME280;26968;42.686;23.352;2023-07-20T00:11:19;94888.50;;;26.52;44.01
41234;BME280;26968;42.686;23.352;2023-07-20T00:13:44;94887.72;;;26.56;43.96
41234;BME280;26968;42.686;23.352;2023-07-20T00:16:10;94903.28;;;26.59;43.49
41234;BME280;26968;42.686;23.352;2023-07-20T00:18:35;94921.91;;;26.49;44.08
41234;BME280;26968;42.686;23.352;2023-07-20T00:21:01;94944.19;;;26.76;44.15
41234;BME280;26968;42.686;23.352;2023-07-20T00:23:27;94923.16;;;26.70;44.37
41234;BME280;26968;42.686;23.352;2023-07-20T00:25:52;94944.94;;;26.70;44.59
41234;BME280;26968;42.686;23.352;2023-07-20T00:28:18;94931.66;;;26.54;44.59
41234;BME280;26968;42.686;23.352;2023-07-20T00:30:43;94944.22;;;26.83;44.01
41234;BME280;26968;42.686;23.352;2023-07-20T00:33:10;94925.94;;;26.87;44.07
41234;BME280;26968;42.686;23.352;2023-07-20T00:35:36;94926.72;;;26.88;44.46
41234;BME280;26968;42.686;23.352;2023-07-20T00:38:03;94959.09;;;27.07;44.60
41234;BME280;26968;42.686;23.352;2023-07-20T00:40:28;94949.31;;;26.96;45.38
41234;BME280;26968;42.686;23.352;2023-07-20T00:42:54;94948.16;;;26.97;46.24
41234;BME280;26968;42.686;23.352;2023-07-20T00:45:19;94943.91;;;27.03;46.19
41234;BME280;26968;42.686;23.352;2023-07-20T00:47:45;94939.63;;;27.02;46.65
41234;BME280;26968;42.686;23.352;2023-07-20T00:50:10;94914.34;;;26.91;46.60
41234;BME280;26968;42.686;23.352;2023-07-20T00:52:37;94937.66;;;26.95;47.22
41234;BME280;26968;42.686;23.352;2023-07-20T00:55:05;94900.69;;;26.83;46.78
41234;BME280;26968;42.686;23.352;2023-07-20T00:57:31;94892.53;;;26.83;46.76
41234;BME280;26968;42.686;23.352;2023-07-20T00:59:57;94911.25;;;26.99;46.89
41234;BME280;26968;42.686;23.352;2023-07-20T01:02:22;94915.81;;;26.81;47.34
41234;BME280;26968;42.686;23.352;2023-07-20T01:04:48;94923.28;;;26.91;47.05
41234;BME280;26968;42.686;23.352;2023-07-20T01:07:21;94929.09;;;26.93;47.20
41234;BME280;26968;42.686;23.352;2023-07-20T01:09:52;94911.88;;;26.71;47.42
41234;BME280;26968;42.686;23.352;2023-07-20T01:12:26;94939.16;;;26.82;47.90
41234;BME280;26968;42.686;23.352;2023-07-20T01:14:53;94932.91;;;26.74;48.34
41234;BME280;26968;42.686;23.352;2023-07-20T01:17:19;94930.97;;;26.75;47.80
41234;BME280;26968;42.686;23.352;2023-07-20T01:19:44;94929.81;;;26.76;47.63
41234;BME280;26968;42.686;23.352;2023-07-20T01:27:53;94925.50;;;26.71;48.15
41234;BME280;26968;42.686;23.352;2023-07-20T01:33:05;94927.34;;;26.49;47.41
41234;BME280;26968;42.686;23.352;2023-07-20T01:35:33;94921.06;;;26.38;47.85
41234;BME280;26968;42.686;23.352;2023-07-20T01:37:59;94889.09;;;26.21;47.89
41234;BME280;26968;42.686;23.352;2023-07-20T01:40:25;94924.16;;;26.37;47.84
41234;BME280;26968;42.686;23.352;2023-07-20T01:42:52;94926.38;;;26.21;47.88
41234;BME280;26968;42.686;23.352;2023-07-20T01:45:18;94930.22;;;26.16;48.26
41234;BME280;26968;42.686;23.352;2023-07-20T01:47:44;94917.75;;;26.11;48.02
41234;BME280;26968;42.686;23.352;2023-07-20T01:50:10;94932.97;;;26.20;47.93
41234;BME280;26968;42.686;23.352;2023-07-20T01:52:35;94923.56;;;26.10;48.38
41234;BME280;26968;42.686;23.352;2023-07-20T01:55:02;94935.97;;;26.04;48.69
41234;BME280;26968;42.686;23.352;2023-07-20T01:57:29;94898.13;;;25.78;48.87
41234;BME280;26968;42.686;23.352;2023-07-20T01:59:55;94885.72;;;25.77;48.66
41234;BME280;26968;42.686;23.352;2023-07-20T02:02:20;94936.00;;;26.11;48.48
41234;BME280;26968;42.686;23.352;2023-07-20T02:04:45;94923.56;;;26.06;48.43
41234;BME280;26968;42.686;23.352;2023-07-20T02:07:11;94861.94;;;25.63;48.61
41234;BME280;26968;42.686;23.352;2023-07-20T02:09:36;94876.75;;;25.72;48.89
41234;BME280;26968;42.686;23.352;2023-07-20T02:12:02;94901.63;;;25.78;49.21
41234;BME280;26968;42.686;23.352;2023-07-20T02:14:27;94901.69;;;25.85;49.30
41234;BME280;26968;42.686;23.352;2023-07-20T02:16:53;94912.56;;;25.85;49.51
41234;BME280;26968;42.686;23.352;2023-07-20T02:19:24;94888.38;;;25.69;49.76
41234;BME280;26968;42.686;23.352;2023-07-20T02:21:49;94889.09;;;25.63;49.89
41234;BME280;26968;42.686;23.352;2023-07-20T02:24:15;94915.22;;;25.78;49.96
41234;BME280;26968;42.686;23.352;2023-07-20T02:26:40;94928.44;;;25.87;50.21
41234;BME280;26968;42.686;23.352;2023-07-20T02:29:05;94909.00;;;25.78;50.22
41234;BME280;26968;42.686;23.352;2023-07-20T02:31:31;94909.69;;;25.71;49.95
41234;BME280;26968;42.686;23.352;2023-07-20T02:33:56;94874.97;;;25.50;50.33
41234;BME280;26968;42.686;23.352;2023-07-20T02:36:22;94920.59;;;25.74;50.78
41234;BME280;26968;42.686;23.352;2023-07-20T02:38:47;94888.25;;;25.55;50.59
41234;BME280;26968;42.686;23.352;2023-07-20T02:41:13;94896.44;;;25.59;50.95
41234;BME280;26968;42.686;23.352;2023-07-20T02:43:39;94847.25;;;25.27;51.20
41234;BME280;26968;42.686;23.352;2023-07-20T02:46:04;94903.78;;;25.58;51.27
41234;BME280;26968;42.686;23.352;2023-07-20T02:48:30;94880.00;;;25.45;51.54
41234;BME280;26968;42.686;23.352;2023-07-20T02:50:55;94858.47;;;25.22;51.83
41234;BME280;26968;42.686;23.352;2023-07-20T02:53:20;94874.84;;;25.32;51.75
41234;BME280;26968;42.686;23.352;2023-07-20T02:55:46;94861.91;;;25.15;51.94
41234;BME280;26968;42.686;23.352;2023-07-20T02:58:12;94847.00;;;24.98;51.83
41234;BME280;26968;42.686;23.352;2023-07-20T03:00:38;94809.94;;;24.76;51.88
41234;BME280;26968;42.686;23.352;2023-07-20T03:03:03;94779.41;;;24.46;51.92
41234;BME280;26968;42.686;23.352;2023-07-20T03:05:29;94884.75;;;25.14;51.88
41234;BME280;26968;42.686;23.352;2023-07-20T03:07:55;94873.13;;;25.14;51.97
41234;BME280;26968;42.686;23.352;2023-07-20T03:10:21;94902.38;;;25.34;51.76
41234;BME280;26968;42.686;23.352;2023-07-20T03:12:46;94906.66;;;25.32;51.76
41234;BME280;26968;42.686;23.352;2023-07-20T03:15:12;94832.50;;;24.87;51.85
41234;BME280;26968;42.686;23.352;2023-07-20T03:17:37;94901.59;;;25.30;51.98
41234;BME280;26968;42.686;23.352;2023-07-20T03:20:03;94867.50;;;24.96;52.14
41234;BME280;26968;42.686;23.352;2023-07-20T03:22:30;94876.47;;;25.00;52.35
41234;BME280;26968;42.686;23.352;2023-07-20T03:24:55;94906.47;;;25.14;52.61
41234;BME280;26968;42.686;23.352;2023-07-20T03:27:21;94906.13;;;25.19;52.74
41234;BME280;26968;42.686;23.352;2023-07-20T03:29:46;94842.06;;;24.74;52.72
41234;BME280;26968;42.686;23.352;2023-07-20T03:32:12;94889.25;;;24.99;51.44
41234;BME280;26968;42.686;23.352;2023-07-20T03:34:37;94916.16;;;25.15;50.89
41234;BME280;26968;42.686;23.352;2023-07-20T03:37:03;94885.50;;;25.11;51.37
41234;BME280;26968;42.686;23.352;2023-07-20T03:39:30;94888.97;;;25.08;51.31
41234;BME280;26968;42.686;23.352;2023-07-20T03:41:55;94877.56;;;24.95;50.99
41234;BME280;26968;42.686;23.352;2023-07-20T03:44:22;94879.91;;;24.93;51.09
41234;BME280;26968;42.686;23.352;2023-07-20T03:46:47;94928.28;;;25.25;50.50
41234;BME280;26968;42.686;23.352;2023-07-20T03:49:13;94868.03;;;24.75;50.66
41234;BME280;26968;42.686;23.352;2023-07-20T03:51:39;94906.94;;;24.90;51.17
41234;BME280;26968;42.686;23.352;2023-07-20T03:54:05;94913.75;;;25.07;50.53
41234;BME280;26968;42.686;23.352;2023-07-20T03:56:30;94865.75;;;24.77;50.50
41234;BME280;26968;42.686;23.352;2023-07-20T03:59:00;94886.88;;;24.94;50.85
41234;BME280;26968;42.686;23.352;2023-07-20T04:01:26;94857.16;;;24.72;51.08
41234;BME280;26968;42.686;23.352;2023-07-20T04:03:51;94873.53;;;24.82;50.97
41234;BME280;26968;42.686;23.352;2023-07-20T04:06:16;94915.34;;;25.11;50.85
41234;BME280;26968;42.686;23.352;2023-07-20T04:08:43;94886.91;;;24.98;50.73
41234;BME280;26968;42.686;23.352;2023-07-20T04:11:08;94913.44;;;25.15;50.76
41234;BME280;26968;42.686;23.352;2023-07-20T04:13:34;94829.19;;;24.64;51.07
41234;BME280;26968;42.686;23.352;2023-07-20T04:16:00;94878.34;;;24.92;51.18
41234;BME280;26968;42.686;23.352;2023-07-20T04:18:25;94883.53;;;25.08;51.20
41234;BME280;26968;42.686;23.352;2023-07-20T04:20:52;94907.44;;;25.32;50.80
41234;BME280;26968;42.686;23.352;2023-07-20T04:23:18;94912.13;;;25.39;50.64
41234;BME280;26968;42.686;23.352;2023-07-20T04:25:43;94909.78;;;25.37;50.55
41234;BME280;26968;42.686;23.352;2023-07-20T04:28:09;94904.78;;;25.40;50.69
41234;BME280;26968;42.686;23.352;2023-07-20T04:30:35;94910.53;;;25.34;51.24
41234;BME280;26968;42.686;23.352;2023-07-20T04:33:02;94893.16;;;25.02;52.08
41234;BME280;26968;42.686;23.352;2023-07-20T04:35:48;94910.88;;;25.29;51.59
41234;BME280;26968;42.686;23.352;2023-07-20T04:38:14;94903.94;;;25.32;51.49
41234;BME280;26968;42.686;23.352;2023-07-20T04:40:47;94832.16;;;24.89;51.48
41234;BME280;26968;42.686;23.352;2023-07-20T04:43:17;94896.16;;;25.34;51.69
41234;BME280;26968;42.686;23.352;2023-07-20T04:45:43;94831.81;;;24.90;51.49
41234;BME280;26968;42.686;23.352;2023-07-20T04:48:10;94889.16;;;25.29;51.57
41234;BME280;26968;42.686;23.352;2023-07-20T04:50:43;94870.03;;;25.15;51.62
41234;BME280;26968;42.686;23.352;2023-07-20T04:53:10;94902.44;;;25.42;51.69
41234;BME280;26968;42.686;23.352;2023-07-20T04:55:37;94884.94;;;25.35;51.36
41234;BME280;26968;42.686;23.352;2023-07-20T04:58:03;94868.22;;;25.30;51.73
41234;BME280;26968;42.686;23.352;2023-07-20T05:00:29;94873.00;;;25.44;51.50
41234;BME280;26968;42.686;23.352;2023-07-20T05:02:55;94881.19;;;25.47;51.82
41234;BME280;26968;42.686;23.352;2023-07-20T05:05:21;94871.81;;;25.41;51.55
41234;BME280;26968;42.686;23.352;2023-07-20T05:07:46;94894.38;;;25.49;51.31
41234;BME280;26968;42.686;23.352;2023-07-20T05:10:11;94903.47;;;25.67;50.82
41234;BME280;26968;42.686;23.352;2023-07-20T05:12:37;94897.25;;;25.63;50.62
41234;BME280;26968;42.686;23.352;2023-07-20T05:15:03;94913.19;;;25.71;50.90
41234;BME280;26968;42.686;23.352;2023-07-20T05:17:29;94893.34;;;25.64;50.30
41234;BME280;26968;42.686;23.352;2023-07-20T05:19:54;94860.25;;;25.51;50.32
41234;BME280;26968;42.686;23.352;2023-07-20T05:22:20;94899.34;;;25.84;49.75
41234;BME280;26968;42.686;23.352;2023-07-20T05:24:45;94881.38;;;25.72;49.78
41234;BME280;26968;42.686;23.352;2023-07-20T05:27:11;94890.78;;;25.78;49.33
41234;BME280;26968;42.686;23.352;2023-07-20T05:29:36;94859.59;;;25.61;49.55
41234;BME280;26968;42.686;23.352;2023-07-20T05:32:01;94911.09;;;26.02;48.93
41234;BME280;26968;42.686;23.352;2023-07-20T05:34:28;94919.31;;;26.09;49.09
41234;BME280;26968;42.686;23.352;2023-07-20T05:37:08;94896.75;;;26.05;48.88
41234;BME280;26968;42.686;23.352;2023-07-20T05:39:34;94901.47;;;26.11;49.04
41234;BME280;26968;42.686;23.352;2023-07-20T05:41:59;94902.25;;;26.12;49.01
41234;BME280;26968;42.686;23.352;2023-07-20T05:44:25;94904.94;;;26.08;49.04
41234;BME280;26968;42.686;23.352;2023-07-20T05:46:50;94876.41;;;25.78;49.15
41234;BME280;26968;42.686;23.352;2023-07-20T05:49:16;94915.00;;;26.01;49.23
41234;BME280;26968;42.686;23.352;2023-07-20T05:51:41;94913.59;;;25.73;49.32
41234;BME280;26968;42.686;23.352;2023-07-20T05:54:07;94925.06;;;26.00;48.88
41234;BME280;26968;42.686;23.352;2023-07-20T05:56:33;94927.47;;;26.12;48.63
41234;BME280;26968;42.686;23.352;2023-07-20T05:58:58;94863.41;;;25.57;48.65
41234;BME280;26968;42.686;23.352;2023-07-20T06:01:24;94925.78;;;25.90;49.19
41234;BME280;26968;42.686;23.352;2023-07-20T06:03:52;94910.75;;;26.07;48.84
41234;BME280;26968;42.686;23.352;2023-07-20T06:06:18;94908.03;;;26.10;48.56
41234;BME280;26968;42.686;23.352;2023-07-20T06:08:44;94915.81;;;26.08;48.83
41234;BME280;26968;42.686;23.352;2023-07-20T06:11:10;94812.44;;;25.36;48.75
41234;BME280;26968;42.686;23.352;2023-07-20T06:13:35;94853.53;;;25.82;48.59
41234;BME280;26968;42.686;23.352;2023-07-20T06:16:01;94875.69;;;25.84;48.60
41234;BME280;26968;42.686;23.352;2023-07-20T06:18:28;94915.69;;;25.91;48.58
41234;BME280;26968;42.686;23.352;2023-07-20T06:20:53;94905.38;;;26.14;48.61
41234;BME280;26968;42.686;23.352;2023-07-20T06:23:19;94888.69;;;26.16;48.69
41234;BME280;26968;42.686;23.352;2023-07-20T06:25:45;94838.38;;;25.81;48.17
41234;BME280;26968;42.686;23.352;2023-07-20T06:28:11;94892.66;;;26.32;47.91
41234;BME280;26968;42.686;23.352;2023-07-20T06:30:37;94895.44;;;26.43;47.92
41234;BME280;26968;42.686;23.352;2023-07-20T06:33:02;94879.13;;;26.43;48.01
41234;BME280;26968;42.686;23.352;2023-07-20T06:35:28;94864.75;;;26.42;47.81
41234;BME280;26968;42.686;23.352;2023-07-20T06:37:53;94858.53;;;26.38;47.40
41234;BME280;26968;42.686;23.352;2023-07-20T06:40:19;94899.47;;;26.74;47.09
41234;BME280;26968;42.686;23.352;2023-07-20T06:42:44;94841.06;;;26.39;47.04
41234;BME280;26968;42.686;23.352;2023-07-20T06:45:10;94864.84;;;26.60;47.31
41234;BME280;26968;42.686;23.352;2023-07-20T06:47:39;94876.72;;;26.27;47.81
41234;BME280;26968;42.686;23.352;2023-07-20T06:50:08;94848.75;;;26.27;47.45
41234;BME280;26968;42.686;23.352;2023-07-20T06:52:34;94868.97;;;26.29;46.67
41234;BME280;26968;42.686;23.352;2023-07-20T06:54:59;94882.63;;;26.43;47.70
41234;BME280;26968;42.686;23.352;2023-07-20T06:57:25;94860.84;;;26.36;47.43
41234;BME280;26968;42.686;23.352;2023-07-20T06:59:51;94893.63;;;26.72;46.72
41234;BME280;26968;42.686;23.352;2023-07-20T07:02:16;94913.13;;;26.88;47.20
41234;BME280;26968;42.686;23.352;2023-07-20T07:04:42;94912.31;;;26.80;47.26
41234;BME280;26968;42.686;23.352;2023-07-20T07:07:08;94920.09;;;26.85;47.43
41234;BME280;26968;42.686;23.352;2023-07-20T07:09:34;94915.16;;;27.09;47.18
41234;BME280;26968;42.686;23.352;2023-07-20T07:12:00;94891.34;;;26.88;46.37
41234;BME280;26968;42.686;23.352;2023-07-20T07:14:25;94922.56;;;27.15;45.87
41234;BME280;26968;42.686;23.352;2023-07-20T07:16:51;94918.28;;;27.18;45.77
41234;BME280;26968;42.686;23.352;2023-07-20T07:19:16;94955.59;;;27.10;45.35
41234;BME280;26968;42.686;23.352;2023-07-20T07:21:42;94898.63;;;26.59;45.30
41234;BME280;26968;42.686;23.352;2023-07-20T07:24:07;94962.53;;;26.94;45.80
41234;BME280;26968;42.686;23.352;2023-07-20T07:26:33;94971.38;;;26.76;46.95
41234;BME280;26968;42.686;23.352;2023-07-20T07:28:58;94954.63;;;26.71;46.35
41234;BME280;26968;42.686;23.352;2023-07-20T07:31:29;94950.28;;;26.56;46.13
41234;BME280;26968;42.686;23.352;2023-07-20T07:33:55;94943.66;;;26.49;46.18
41234;BME280;26968;42.686;23.352;2023-07-20T07:36:20;94941.34;;;26.55;46.59
41234;BME280;26968;42.686;23.352;2023-07-20T07:38:46;94944.94;;;26.73;46.62
41234;BME280;26968;42.686;23.352;2023-07-20T07:41:11;94863.41;;;26.11;46.79
41234;BME280;26968;42.686;23.352;2023-07-20T07:43:37;94944.06;;;26.55;47.21
41234;BME280;26968;42.686;23.352;2023-07-20T07:46:04;94936.00;;;26.69;46.80
41234;BME280;26968;42.686;23.352;2023-07-20T07:48:29;94939.13;;;26.78;47.29
41234;BME280;26968;42.686;23.352;2023-07-20T07:50:55;94941.16;;;26.92;46.84
41234;BME280;26968;42.686;23.352;2023-07-20T07:53:20;94885.03;;;26.63;47.52
41234;BME280;26968;42.686;23.352;2023-07-20T07:55:47;94890.16;;;26.78;47.03
41234;BME280;26968;42.686;23.352;2023-07-20T07:58:13;94914.38;;;27.05;46.35
41234;BME280;26968;42.686;23.352;2023-07-20T08:00:39;94919.72;;;26.83;47.12
41234;BME280;26968;42.686;23.352;2023-07-20T08:03:06;94915.41;;;26.79;47.27
41234;BME280;26968;42.686;23.352;2023-07-20T08:05:33;94895.31;;;26.98;46.56
41234;BME280;26968;42.686;23.352;2023-07-20T08:08:00;94933.03;;;27.03;46.90
41234;BME280;26968;42.686;23.352;2023-07-20T08:10:26;94947.78;;;26.91;47.01
41234;BME280;26968;42.686;23.352;2023-07-20T08:12:51;94966.34;;;26.82;47.85
41234;BME280;26968;42.686;23.352;2023-07-20T08:15:17;94958.88;;;26.65;47.78
41234;BME280;26968;42.686;23.352;2023-07-20T08:17:42;94958.03;;;26.50;49.02
41234;BME280;26968;42.686;23.352;2023-07-20T08:20:09;94953.75;;;26.45;49.49
41234;BME280;26968;42.686;23.352;2023-07-20T08:22:37;94963.53;;;26.64;49.41
41234;BME280;26968;42.686;23.352;2023-07-20T08:25:07;94970.88;;;26.53;50.61
41234;BME280;26968;42.686;23.352;2023-07-20T08:27:33;94956.31;;;26.24;51.56
41234;BME280;26968;42.686;23.352;2023-07-20T08:29:59;94935.91;;;25.97;50.37
41234;BME280;26968;42.686;23.352;2023-07-20T08:32:25;94950.28;;;25.97;49.38
41234;BME280;26968;42.686;23.352;2023-07-20T08:34:50;94922.97;;;25.80;48.22
41234;BME280;26968;42.686;23.352;2023-07-20T08:37:16;94959.75;;;26.21;48.59
41234;BME280;26968;42.686;23.352;2023-07-20T08:39:41;94925.81;;;25.94;47.56
41234;BME280;26968;42.686;23.352;2023-07-20T08:42:09;94968.78;;;26.29;46.70
41234;BME280;26968;42.686;23.352;2023-07-20T08:44:38;94978.75;;;26.14;46.50
41234;BME280;26968;42.686;23.352;2023-07-20T08:47:05;94941.34;;;25.97;44.47
41234;BME280;26968;42.686;23.352;2023-07-20T08:49:32;94953.19;;;26.22;45.18
41234;BME280;26968;42.686;23.352;2023-07-20T08:51:58;94916.84;;;25.90;44.93
41234;BME280;26968;42.686;23.352;2023-07-20T08:54:25;94959.88;;;26.35;44.11
41234;BME280;26968;42.686;23.352;2023-07-20T08:56:54;94936.97;;;26.36;44.49
41234;BME280;26968;42.686;23.352;2023-07-20T08:59:23;94949.47;;;26.44;44.75
41234;BME280;26968;42.686;23.352;2023-07-20T09:01:50;94930.72;;;26.29;43.83
41234;BME280;26968;42.686;23.352;2023-07-20T09:04:17;94955.31;;;26.50;44.01
41234;BME280;26968;42.686;23.352;2023-07-20T09:06:43;94935.44;;;26.42;44.04
41234;BME280;26968;42.686;23.352;2023-07-20T09:09:08;94913.69;;;26.39;42.55
41234;BME280;26968;42.686;23.352;2023-07-20T09:11:34;94878.97;;;26.18;43.43
41234;BME280;26968;42.686;23.352;2023-07-20T09:14:04;94896.59;;;26.38;43.58
41234;BME280;26968;42.686;23.352;2023-07-20T09:16:29;94921.91;;;26.46;43.27
41234;BME280;26968;42.686;23.352;2023-07-20T09:18:58;94876.34;;;26.32;43.60
41234;BME280;26968;42.686;23.352;2023-07-20T09:21:23;94928.97;;;26.65;43.14
41234;BME280;26968;42.686;23.352;2023-07-20T09:23:56;94862.47;;;26.51;43.17
41234;BME280;26968;42.686;23.352;2023-07-20T09:26:22;94915.91;;;26.99;43.60
41234;BME280;26968;42.686;23.352;2023-07-20T09:28:49;94920.56;;;27.02;43.49
41234;BME280;26968;42.686;23.352;2023-07-20T09:31:20;94898.81;;;27.09;43.44
41234;BME280;26968;42.686;23.352;2023-07-20T09:33:47;94882.47;;;26.91;43.01
41234;BME280;26968;42.686;23.352;2023-07-20T09:36:13;94900.03;;;27.25;43.38
41234;BME280;26968;42.686;23.352;2023-07-20T09:38:42;94914.44;;;27.47;42.12
41234;BME280;26968;42.686;23.352;2023-07-20T09:41:19;94879.03;;;27.33;41.86
41234;BME280;26968;42.686;23.352;2023-07-20T09:43:45;94925.41;;;27.76;41.27
41234;BME280;26968;42.686;23.352;2023-07-20T09:46:11;94888.78;;;27.48;40.41
41234;BME280;26968;42.686;23.352;2023-07-20T09:48:36;94781.78;;;26.95;39.97
41234;BME280;26968;42.686;23.352;2023-07-20T09:51:03;94891.56;;;27.77;39.11
41234;BME280;26968;42.686;23.352;2023-07-20T09:53:32;94898.84;;;28.47;37.64
41234;BME280;26968;42.686;23.352;2023-07-20T09:55:58;94848.38;;;28.98;37.15
41234;BME280;26968;42.686;23.352;2023-07-20T09:58:26;94865.28;;;29.85;35.24
41234;BME280;26968;42.686;23.352;2023-07-20T10:00:52;94860.94;;;30.33;34.14
41234;BME280;26968;42.686;23.352;2023-07-20T10:03:21;94871.50;;;30.30;34.39
41234;BME280;26968;42.686;23.352;2023-07-20T10:05:52;94848.56;;;29.76;34.71
41234;BME280;26968;42.686;23.352;2023-07-20T10:08:20;94868.84;;;29.82;35.17
41234;BME280;26968;42.686;23.352;2023-07-20T10:10:48;94848.81;;;29.48;34.87
41234;BME280;26968;42.686;23.352;2023-07-20T10:13:17;94846.69;;;29.18;35.41
41234;BME280;26968;42.686;23.352;2023-07-20T10:15:47;94855.66;;;29.15;35.52
41234;BME280;26968;42.686;23.352;2023-07-20T10:18:22;94883.00;;;29.08;35.97
41234;BME280;26968;42.686;23.352;2023-07-20T10:20:51;94870.09;;;29.15;36.52
41234;BME280;26968;42.686;23.352;2023-07-20T10:23:19;94863.03;;;29.22;36.40
41234;BME280;26968;42.686;23.352;2023-07-20T10:25:45;94863.59;;;28.92;36.58
41234;BME280;26968;42.686;23.352;2023-07-20T10:28:12;94893.28;;;28.83;37.40
41234;BME280;26968;42.686;23.352;2023-07-20T10:30:38;94848.19;;;28.53;37.81
41234;BME280;26968;42.686;23.352;2023-07-20T10:33:05;94889.84;;;28.57;38.21
41234;BME280;26968;42.686;23.352;2023-07-20T10:35:31;94833.34;;;28.54;38.03
41234;BME280;26968;42.686;23.352;2023-07-20T10:38:15;94808.94;;;28.19;37.53
41234;BME280;26968;42.686;23.352;2023-07-20T10:40:40;94880.81;;;28.71;37.03
41234;BME280;26968;42.686;23.352;2023-07-20T10:43:07;94879.69;;;28.75;36.91
41234;BME280;26968;42.686;23.352;2023-07-20T10:47:58;94857.44;;;28.70;36.44
41234;BME280;26968;42.686;23.352;2023-07-20T10:50:28;94798.94;;;28.82;36.18
41234;BME280;26968;42.686;23.352;2023-07-20T10:53:19;94806.31;;;28.85;41.55
41234;BME280;26968;42.686;23.352;2023-07-20T10:55:44;94835.22;;;28.78;37.89
41234;BME280;26968;42.686;23.352;2023-07-20T10:58:13;94858.63;;;28.65;37.70
41234;BME280;26968;42.686;23.352;2023-07-20T11:01:00;94788.53;;;28.55;38.28
41234;BME280;26968;42.686;23.352;2023-07-20T11:03:34;94828.84;;;28.99;37.22
41234;BME280;26968;42.686;23.352;2023-07-20T11:11:40;94786.81;;;29.86;34.36
41234;BME280;26968;42.686;23.352;2023-07-20T11:14:08;94788.97;;;30.39;34.20
41234;BME280;26968;42.686;23.352;2023-07-20T11:19:00;94807.53;;;31.16;33.20
41234;BME280;26968;42.686;23.352;2023-07-20T11:21:25;94780.44;;;30.94;33.23
41234;BME280;26968;42.686;23.352;2023-07-20T11:23:55;94809.69;;;31.28;33.76
41234;BME280;26968;42.686;23.352;2023-07-20T11:26:21;94801.56;;;31.71;32.45
41234;BME280;26968;42.686;23.352;2023-07-20T11:28:50;94788.81;;;31.84;32.37
41234;BME280;26968;42.686;23.352;2023-07-20T11:31:20;94652.94;;;30.93;32.60
41234;BME280;26968;42.686;23.352;2023-07-20T11:33:46;94741.03;;;31.62;32.47
41234;BME280;26968;42.686;23.352;2023-07-20T11:36:12;94788.94;;;31.77;32.38
41234;BME280;26968;42.686;23.352;2023-07-20T11:38:41;94761.66;;;31.90;32.28
41234;BME280;26968;42.686;23.352;2023-07-20T11:41:07;94760.72;;;32.39;31.77
41234;BME280;26968;42.686;23.352;2023-07-20T11:43:32;94781.78;;;32.26;32.19
41234;BME280;26968;42.686;23.352;2023-07-20T11:45:59;94762.97;;;32.44;32.19
41234;BME280;26968;42.686;23.352;2023-07-20T11:48:24;94733.09;;;32.66;31.60
41234;BME280;26968;42.686;23.352;2023-07-20T11:50:50;94672.78;;;32.63;31.03
41234;BME280;26968;42.686;23.352;2023-07-20T11:53:15;94760.75;;;33.44;30.39
41234;BME280;26968;42.686;23.352;2023-07-20T11:55:41;94721.31;;;33.50;29.92
41234;BME280;26968;42.686;23.352;2023-07-20T11:58:08;94753.78;;;33.71;30.16
41234;BME280;26968;42.686;23.352;2023-07-20T12:00:34;94761.34;;;33.84;29.65
41234;BME280;26968;42.686;23.352;2023-07-20T12:03:00;94745.19;;;33.86;29.23
41234;BME280;26968;42.686;23.352;2023-07-20T12:05:26;94737.09;;;34.24;28.49
41234;BME280;26968;42.686;23.352;2023-07-20T12:07:52;94750.91;;;34.62;28.22
41234;BME280;26968;42.686;23.352;2023-07-20T12:10:28;94712.75;;;34.35;28.33
41234;BME280;26968;42.686;23.352;2023-07-20T12:12:54;94728.41;;;34.38;27.92
41234;BME280;26968;42.686;23.352;2023-07-20T12:17:46;94706.97;;;34.17;28.51
41234;BME280;26968;42.686;23.352;2023-07-20T12:20:25;94739.34;;;34.54;28.67
41234;BME280;26968;42.686;23.352;2023-07-20T12:22:51;94695.72;;;34.65;28.34
41234;BME280;26968;42.686;23.352;2023-07-20T12:25:16;94733.09;;;35.04;27.79
41234;BME280;26968;42.686;23.352;2023-07-20T12:27:45;94735.97;;;34.88;26.63
41234;BME280;26968;42.686;23.352;2023-07-20T12:30:10;94679.31;;;34.87;26.48
41234;BME280;26968;42.686;23.352;2023-07-20T12:32:36;94726.50;;;34.89;27.22
41234;BME280;26968;42.686;23.352;2023-07-20T12:35:01;94727.25;;;34.90;27.53
41234;BME280;26968;42.686;23.352;2023-07-20T12:37:27;94691.25;;;34.84;26.17
41234;BME280;26968;42.686;23.352;2023-07-20T12:39:52;94717.91;;;35.00;26.40
41234;BME280;26968;42.686;23.352;2023-07-20T12:42:18;94715.34;;;35.31;25.81
41234;BME280;26968;42.686;23.352;2023-07-20T12:44:43;94651.66;;;34.65;25.93
41234;BME280;26968;42.686;23.352;2023-07-20T12:47:09;94724.72;;;34.95;26.22
41234;BME280;26968;42.686;23.352;2023-07-20T12:49:34;94660.50;;;34.86;25.07
41234;BME280;26968;42.686;23.352;2023-07-20T12:52:00;94630.41;;;34.66;24.45
41234;BME280;26968;42.686;23.352;2023-07-20T12:54:25;94713.72;;;35.08;24.90
41234;BME280;26968;42.686;23.352;2023-07-20T12:56:50;94709.19;;;35.14;25.30
41234;BME280;26968;42.686;23.352;2023-07-20T12:59:16;94690.69;;;35.49;25.23
41234;BME280;26968;42.686;23.352;2023-07-20T13:01:41;94685.38;;;35.07;25.30
41234;BME280;26968;42.686;23.352;2023-07-20T13:04:08;94666.97;;;34.79;25.52
41234;BME280;26968;42.686;23.352;2023-07-20T13:06:34;94722.44;;;34.94;25.59
41234;BME280;26968;42.686;23.352;2023-07-20T13:09:00;94711.72;;;34.83;25.67